Time;durP1;ratioP1;P1;durP2;ratioP2;P2;SDS_P1;SDS_P2;PMS_P1;PMS_P2;Temp;Humidity;BMP_temperature;BMP_pressure;BME280_temperature;BME280_humidity;BME280_pressure;Samples;Min_cycle;Max_cycle;Signal;HPM_P1;HPM_P2
2022/08/18 00:02:16;;;;;;;12.98;4.55;;;;;;;;;;5030712;28;20032;-75
2022/08/18 00:04:42;;;;;;;8.50;3.70;;;;;;;;;;5031994;28;20037;-75
2022/08/18 00:07:11;;;;;;;11.73;4.13;;;;;;;;;;5031914;28;20076;-75
2022/08/18 00:09:39;;;;;;;9.35;4.22;;;;;;;;;;5031727;28;20048;-75
2022/08/18 00:12:27;;;;;;;18.67;5.18;;;;;;;;;;5031911;28;20026;-75
2022/08/18 00:14:54;;;;;;;12.60;4.55;;;;;;;;;;5031038;28;20041;-76
2022/08/18 00:17:21;;;;;;;7.80;4.15;;;;;;;;;;5031821;28;20026;-75
2022/08/18 00:19:48;;;;;;;7.85;3.92;;;;;;;;;;5031594;28;20036;-76
2022/08/18 00:22:17;;;;;;;7.95;3.90;;;;;;;;;;5031397;28;20027;-75
2022/08/18 00:24:46;;;;;;;14.10;4.97;;;;;;;;;;5031790;28;20116;-75
2022/08/18 00:27:11;;;;;;;14.88;5.97;;;;;;;;;;5031470;28;20045;-74
2022/08/18 00:29:38;;;;;;;12.32;5.90;;;;;;;;;;5031324;28;20080;-76
2022/08/18 00:32:14;;;;;;;15.77;4.72;;;;;;;;;;5030380;28;20052;-77
2022/08/18 00:34:40;;;;;;;14.68;5.32;;;;;;;;;;5031669;28;20040;-77
2022/08/18 00:37:06;;;;;;;14.00;4.70;;;;;;;;;;5031578;28;20464;-77
2022/08/18 00:39:33;;;;;;;7.32;4.60;;;;;;;;;;5031679;28;20034;-77
2022/08/18 00:42:10;;;;;;;11.55;5.25;;;;;;;;;;5031513;28;20064;-76
2022/08/18 00:44:36;;;;;;;14.65;4.97;;;;;;;;;;5031510;28;20117;-77
2022/08/18 00:47:02;;;;;;;11.00;3.72;;;;;;;;;;5031721;28;20096;-77
2022/08/18 00:49:28;;;;;;;11.05;3.40;;;;;;;;;;5031658;28;20033;-77
2022/08/18 00:51:55;;;;;;;9.10;3.60;;;;;;;;;;5031843;28;20033;-76
2022/08/18 00:54:24;;;;;;;7.60;3.38;;;;;;;;;;5031851;28;20029;-77
2022/08/18 00:56:54;;;;;;;7.15;3.40;;;;;;;;;;5031867;28;20387;-77
2022/08/18 00:59:32;;;;;;;6.13;3.15;;;;;;;;;;5031582;28;20030;-77
2022/08/18 01:02:01;;;;;;;5.82;2.90;;;;;;;;;;5031705;28;20040;-76
2022/08/18 01:04:48;;;;;;;5.68;2.90;;;;;;;;;;5031422;28;20349;-75
2022/08/18 01:07:19;;;;;;;13.48;3.50;;;;;;;;;;5034274;28;20029;-76
2022/08/18 01:09:48;;;;;;;11.50;4.35;;;;;;;;;;5035367;28;20026;-77
2022/08/18 01:12:14;;;;;;;7.05;3.63;;;;;;;;;;5034979;28;20096;-76
2022/08/18 01:14:40;;;;;;;7.20;3.90;;;;;;;;;;5035386;28;20029;-77
2022/08/18 01:22:42;;;;;;;11.07;4.38;;;;;;;;;;5029782;28;20088;-77
2022/08/18 01:27:56;;;;;;;9.18;3.65;;;;;;;;;;5034954;28;20045;-77
2022/08/18 01:30:24;;;;;;;9.75;3.08;;;;;;;;;;5034481;28;20054;-76
2022/08/18 01:32:51;;;;;;;9.15;3.88;;;;;;;;;;5034764;28;20083;-77
2022/08/18 01:35:20;;;;;;;7.97;3.22;;;;;;;;;;5034661;28;20072;-76
2022/08/18 01:37:46;;;;;;;9.23;3.20;;;;;;;;;;5034407;28;20144;-77
2022/08/18 01:40:14;;;;;;;6.90;3.70;;;;;;;;;;5034383;28;20053;-75
2022/08/18 01:42:44;;;;;;;6.80;4.18;;;;;;;;;;5034500;28;20032;-75
2022/08/18 01:45:12;;;;;;;6.85;3.53;;;;;;;;;;5034515;28;20056;-74
2022/08/18 01:47:39;;;;;;;9.30;3.90;;;;;;;;;;5034576;28;20368;-76
2022/08/18 01:50:07;;;;;;;7.18;3.33;;;;;;;;;;5034670;28;20384;-77
2022/08/18 01:52:34;;;;;;;10.30;3.70;;;;;;;;;;5034399;28;20048;-77
2022/08/18 01:55:01;;;;;;;13.68;4.20;;;;;;;;;;5032731;28;20486;-75
2022/08/18 01:57:27;;;;;;;10.23;4.15;;;;;;;;;;5023304;28;20045;-76
2022/08/18 01:59:53;;;;;;;14.27;3.72;;;;;;;;;;5014499;28;20560;-76
2022/08/18 02:02:26;;;;;;;7.93;3.47;;;;;;;;;;5028892;28;20057;-75
2022/08/18 02:04:58;;;;;;;8.65;3.60;;;;;;;;;;5034574;28;20026;-76
2022/08/18 02:07:24;;;;;;;6.47;3.15;;;;;;;;;;5034463;28;20037;-75
2022/08/18 02:09:50;;;;;;;8.68;3.70;;;;;;;;;;5033908;28;20033;-76
2022/08/18 02:12:16;;;;;;;8.98;3.78;;;;;;;;;;5033597;28;20161;-77
2022/08/18 02:14:42;;;;;;;7.85;3.60;;;;;;;;;;5034267;28;20357;-76
2022/08/18 02:17:11;;;;;;;8.40;3.78;;;;;;;;;;5033715;28;20049;-76
2022/08/18 02:19:42;;;;;;;6.82;3.65;;;;;;;;;;5034106;28;20144;-76
2022/08/18 02:22:10;;;;;;;13.80;3.50;;;;;;;;;;5033861;28;20037;-76
2022/08/18 02:24:37;;;;;;;6.78;3.58;;;;;;;;;;5033957;28;20022;-76
2022/08/18 02:27:03;;;;;;;8.27;3.33;;;;;;;;;;5033786;28;20034;-78
2022/08/18 02:29:29;;;;;;;9.18;3.58;;;;;;;;;;5033344;28;20047;-78
2022/08/18 02:31:55;;;;;;;11.10;4.10;;;;;;;;;;5033402;28;20034;-77
2022/08/18 02:34:21;;;;;;;11.77;3.97;;;;;;;;;;5033472;28;20125;-77
2022/08/18 02:36:47;;;;;;;9.98;3.65;;;;;;;;;;5033453;28;20025;-77
2022/08/18 02:39:13;;;;;;;8.20;3.92;;;;;;;;;;5033369;28;20041;-77
2022/08/18 02:41:39;;;;;;;8.25;4.18;;;;;;;;;;5033173;28;20044;-77
2022/08/18 02:44:07;;;;;;;6.15;2.92;;;;;;;;;;5031744;28;20021;-77
2022/08/18 02:46:33;;;;;;;7.68;3.00;;;;;;;;;;5033101;28;20057;-77
2022/08/18 02:48:59;;;;;;;6.80;3.08;;;;;;;;;;5033326;28;20064;-77
2022/08/18 02:51:25;;;;;;;6.50;3.10;;;;;;;;;;5033248;28;20040;-77
2022/08/18 02:53:51;;;;;;;5.90;3.10;;;;;;;;;;5032843;28;20017;-76
2022/08/18 02:56:23;;;;;;;8.35;3.30;;;;;;;;;;5032809;28;20033;-75
2022/08/18 02:58:52;;;;;;;13.13;3.22;;;;;;;;;;5033218;28;20064;-77
2022/08/18 03:01:20;;;;;;;6.72;3.00;;;;;;;;;;5033303;28;20029;-76
2022/08/18 03:03:48;;;;;;;5.30;3.20;;;;;;;;;;5032776;28;20037;-76
2022/08/18 03:06:13;;;;;;;6.82;3.15;;;;;;;;;;5032598;28;20026;-77
2022/08/18 03:08:39;;;;;;;7.88;3.08;;;;;;;;;;5032709;28;20113;-77
2022/08/18 03:11:05;;;;;;;9.40;3.03;;;;;;;;;;5032885;28;20597;-77
2022/08/18 03:13:31;;;;;;;8.32;3.35;;;;;;;;;;5032903;28;20037;-76
2022/08/18 03:15:57;;;;;;;8.13;3.30;;;;;;;;;;5032390;28;20021;-76
2022/08/18 03:18:23;;;;;;;8.95;3.78;;;;;;;;;;5032445;28;20392;-77
2022/08/18 03:20:49;;;;;;;10.02;4.20;;;;;;;;;;5032920;28;20396;-77
2022/08/18 03:23:15;;;;;;;9.70;3.70;;;;;;;;;;5032375;28;20037;-75
2022/08/18 03:25:47;;;;;;;8.40;3.90;;;;;;;;;;5032775;28;20079;-76
2022/08/18 03:28:15;;;;;;;8.93;3.40;;;;;;;;;;5032546;28;20068;-77
2022/08/18 03:30:42;;;;;;;14.73;4.22;;;;;;;;;;5031959;28;20107;-77
2022/08/18 03:33:09;;;;;;;4.85;3.00;;;;;;;;;;5032373;28;20034;-77
2022/08/18 03:35:35;;;;;;;9.32;3.70;;;;;;;;;;5032222;28;20048;-75
2022/08/18 03:38:03;;;;;;;5.47;3.28;;;;;;;;;;5032685;28;20480;-75
2022/08/18 03:40:28;;;;;;;5.90;3.53;;;;;;;;;;5032420;28;20022;-77
2022/08/18 03:42:54;;;;;;;12.27;3.90;;;;;;;;;;5032436;28;20822;-76
2022/08/18 03:45:22;;;;;;;8.60;3.90;;;;;;;;;;5032239;28;20028;-74
2022/08/18 03:47:51;;;;;;;14.80;5.45;;;;;;;;;;5032586;28;20053;-75
2022/08/18 03:50:18;;;;;;;8.93;4.68;;;;;;;;;;5032063;28;20112;-77
2022/08/18 03:52:48;;;;;;;7.60;3.78;;;;;;;;;;5032051;28;20044;-76
2022/08/18 03:55:14;;;;;;;9.23;4.13;;;;;;;;;;5031804;28;20038;-74
2022/08/18 03:57:42;;;;;;;10.30;3.90;;;;;;;;;;5031849;28;20028;-76
2022/08/18 04:00:10;;;;;;;15.68;3.85;;;;;;;;;;5031987;28;20026;-76
2022/08/18 04:02:37;;;;;;;11.93;3.83;;;;;;;;;;5031130;28;20026;-74
2022/08/18 04:05:04;;;;;;;7.07;3.70;;;;;;;;;;5032040;28;20115;-77
2022/08/18 04:07:30;;;;;;;9.63;4.25;;;;;;;;;;5031864;28;20021;-77
2022/08/18 04:09:56;;;;;;;13.38;4.35;;;;;;;;;;5031671;28;20037;-77
2022/08/18 04:12:22;;;;;;;13.35;4.88;;;;;;;;;;5031863;28;20029;-77
2022/08/18 04:14:49;;;;;;;14.48;3.75;;;;;;;;;;5031933;28;20042;-76
2022/08/18 04:17:23;;;;;;;11.00;3.30;;;;;;;;;;5020596;28;20030;-76
2022/08/18 04:19:54;;;;;;;8.90;3.38;;;;;;;;;;5031906;28;20125;-76
2022/08/18 04:22:21;;;;;;;8.95;3.72;;;;;;;;;;5031344;28;20029;-77
2022/08/18 04:24:49;;;;;;;10.93;4.45;;;;;;;;;;5018476;28;20033;-75
2022/08/18 04:27:15;;;;;;;8.68;3.40;;;;;;;;;;5009970;28;20034;-77
2022/08/18 04:29:41;;;;;;;10.30;4.00;;;;;;;;;;5019970;28;20037;-77
2022/08/18 04:32:07;;;;;;;9.95;3.30;;;;;;;;;;5029263;28;20040;-77
2022/08/18 04:34:34;;;;;;;8.95;3.50;;;;;;;;;;5030004;28;20038;-76
2022/08/18 04:37:01;;;;;;;6.53;2.92;;;;;;;;;;5030901;28;20029;-82
2022/08/18 04:39:27;;;;;;;8.95;3.25;;;;;;;;;;5030917;28;20036;-82
2022/08/18 04:41:54;;;;;;;11.27;3.67;;;;;;;;;;5030557;28;20045;-76
2022/08/18 04:44:20;;;;;;;7.20;3.40;;;;;;;;;;5035234;28;20361;-78
2022/08/18 04:46:48;;;;;;;10.77;3.60;;;;;;;;;;5033781;28;20530;-79
2022/08/18 04:49:16;;;;;;;8.27;3.63;;;;;;;;;;5035709;28;20025;-81
2022/08/18 04:54:37;;;;;;;8.35;3.58;;;;;;;;;;5034746;28;20075;-79
2022/08/18 04:57:13;;;;;;;8.32;3.47;;;;;;;;;;5035090;28;20025;-81
2022/08/18 04:59:43;;;;;;;8.50;3.50;;;;;;;;;;5034969;28;20079;-81
2022/08/18 05:02:09;;;;;;;9.02;3.85;;;;;;;;;;5035807;28;20052;-81
2022/08/18 05:04:37;;;;;;;9.55;3.83;;;;;;;;;;5036487;28;20490;-81
2022/08/18 05:07:04;;;;;;;11.10;3.70;;;;;;;;;;5033724;28;20025;-79
2022/08/18 05:09:31;;;;;;;9.85;3.58;;;;;;;;;;5035683;28;20040;-80
2022/08/18 05:11:57;;;;;;;7.55;3.45;;;;;;;;;;5034777;28;20490;-76
2022/08/18 05:14:23;;;;;;;9.43;3.55;;;;;;;;;;5016179;28;20038;-80
2022/08/18 05:16:50;;;;;;;6.90;3.75;;;;;;;;;;5016126;28;20033;-79
2022/08/18 05:19:21;;;;;;;7.15;3.25;;;;;;;;;;5015461;28;20046;-81
2022/08/18 05:21:48;;;;;;;10.55;3.60;;;;;;;;;;5015585;28;20034;-82
2022/08/18 05:24:14;;;;;;;6.22;3.47;;;;;;;;;;5015796;28;20392;-80
2022/08/18 05:26:40;;;;;;;5.00;3.10;;;;;;;;;;5015638;28;20046;-81
2022/08/18 05:29:07;;;;;;;5.78;3.03;;;;;;;;;;5015486;28;20483;-81
2022/08/18 05:31:33;;;;;;;6.93;3.40;;;;;;;;;;5015685;28;20531;-84
2022/08/18 05:34:02;;;;;;;10.35;3.40;;;;;;;;;;5015106;28;20026;-81
2022/08/18 05:36:45;;;;;;;7.32;4.82;;;;;;;;;;5015622;28;20038;-82
2022/08/18 05:39:14;;;;;;;7.50;3.67;;;;;;;;;;5032985;28;20033;-81
2022/08/18 05:41:47;;;;;;;7.57;3.17;;;;;;;;;;5035048;28;20021;-80
2022/08/18 05:44:18;;;;;;;6.05;3.15;;;;;;;;;;5035232;28;20100;-82
2022/08/18 05:46:51;;;;;;;8.82;3.72;;;;;;;;;;5033833;28;20388;-81
2022/08/18 05:49:19;;;;;;;7.38;3.50;;;;;;;;;;5035196;28;20060;-82
2022/08/18 05:51:48;;;;;;;5.22;3.17;;;;;;;;;;5029577;28;20075;-80
2022/08/18 05:57:21;;;;;;;11.57;5.05;;;;;;;;;;5021394;28;20084;-79
2022/08/18 05:59:51;;;;;;;7.78;3.90;;;;;;;;;;5031325;28;20045;-81
2022/08/18 06:02:30;;;;;;;8.40;3.67;;;;;;;;;;5034777;28;20098;-82
2022/08/18 06:05:00;;;;;;;7.75;3.70;;;;;;;;;;5034390;28;21205;-83
2022/08/18 06:07:53;;;;;;;10.73;4.00;;;;;;;;;;5034969;28;20120;-79
2022/08/18 06:10:19;;;;;;;;;;;;;;;;;;5026390;28;20083;-81
2022/08/18 06:12:51;;;;;;;11.50;4.22;;;;;;;;;;5014911;28;19913;-83
2022/08/18 06:15:42;;;;;;;11.40;3.70;;;;;;;;;;5014292;28;20045;-79
2022/08/18 06:18:32;;;;;;;8.45;3.45;;;;;;;;;;5014781;28;20113;-82
2022/08/18 06:21:26;;;;;;;10.02;3.88;;;;;;;;;;5014681;28;20116;-82
2022/08/18 06:24:24;;;;;;;7.53;3.38;;;;;;;;;;5014532;28;20037;-87
2022/08/18 06:26:56;;;;;;;9.20;3.40;;;;;;;;;;5015338;28;20065;-83
2022/08/18 06:29:24;;;;;;;10.60;3.80;;;;;;;;;;5014360;28;20129;-77
2022/08/18 06:32:06;;;;;;;8.23;3.30;;;;;;;;;;5014485;28;20045;-83
2022/08/18 06:35:00;;;;;;;10.95;3.70;;;;;;;;;;5014320;28;20551;-81
2022/08/18 06:41:18;;;;;;;10.27;3.72;;;;;;;;;;4992497;28;20556;-76
2022/08/18 06:44:09;;;;;;;6.40;3.60;;;;;;;;;;5014005;28;20030;-80
2022/08/18 06:46:50;;;;;;;7.90;3.30;;;;;;;;;;5011497;28;20060;-78
2022/08/18 06:49:38;;;;;;;8.25;3.72;;;;;;;;;;5013706;28;20385;-81
2022/08/18 06:52:30;;;;;;;8.27;3.63;;;;;;;;;;5033244;28;20038;-77
2022/08/18 06:55:00;;;;;;;8.70;3.55;;;;;;;;;;5030649;28;20088;-77
2022/08/18 06:57:28;;;;;;;6.00;3.00;;;;;;;;;;5014265;28;20205;-79
2022/08/18 07:00:04;;;;;;;7.15;2.95;;;;;;;;;;5013824;28;20034;-80
2022/08/18 07:02:46;;;;;;;8.65;3.00;;;;;;;;;;5013590;28;20383;-80
2022/08/18 07:05:19;;;;;;;7.18;3.30;;;;;;;;;;5013772;28;20088;-79
2022/08/18 07:07:46;;;;;;;7.57;3.47;;;;;;;;;;5014008;28;20113;-82
2022/08/18 07:10:14;;;;;;;14.38;3.30;;;;;;;;;;5014510;28;20032;-78
2022/08/18 07:12:40;;;;;;;8.60;3.78;;;;;;;;;;5014340;28;20026;-80
2022/08/18 07:15:10;;;;;;;6.55;3.45;;;;;;;;;;5014272;28;20021;-79
2022/08/18 07:17:37;;;;;;;9.30;3.53;;;;;;;;;;5014496;28;20038;-74
2022/08/18 07:20:19;;;;;;;8.93;3.65;;;;;;;;;;5013929;28;20022;-74
2022/08/18 07:22:55;;;;;;;7.35;3.38;;;;;;;;;;5013375;28;20037;-76
2022/08/18 07:25:25;;;;;;;7.82;3.50;;;;;;;;;;5014094;28;20104;-79
2022/08/18 07:27:54;;;;;;;9.52;3.00;;;;;;;;;;5013202;28;20403;-76
2022/08/18 07:30:36;;;;;;;8.48;2.80;;;;;;;;;;5022536;28;20103;-81
2022/08/18 07:33:21;;;;;;;5.10;3.03;;;;;;;;;;5012992;28;20034;-78
2022/08/18 07:35:55;;;;;;;7.15;3.40;;;;;;;;;;5013426;28;20173;-79
2022/08/18 07:38:37;;;;;;;7.90;3.10;;;;;;;;;;5013227;28;20034;-79
2022/08/18 07:41:51;;;;;;;10.98;4.05;;;;;;;;;;5012652;28;20033;-79
2022/08/18 07:44:32;;;;;;;8.82;2.70;;;;;;;;;;5008330;28;20511;-77
2022/08/18 07:47:03;;;;;;;5.55;2.90;;;;;;;;;;5013119;28;20112;-78
2022/08/18 07:49:35;;;;;;;10.43;3.03;;;;;;;;;;5013322;28;20164;-76
2022/08/18 07:52:04;;;;;;;6.65;3.15;;;;;;;;;;5012486;28;20036;-73
2022/08/18 07:54:53;;;;;;;11.13;3.10;;;;;;;;;;5012694;28;20468;-73
2022/08/18 07:57:34;;;;;;;16.10;3.30;;;;;;;;;;5012842;28;20104;-74
2022/08/18 08:00:15;;;;;;;7.43;3.20;;;;;;;;;;5012827;28;20034;-79
2022/08/18 08:02:53;;;;;;;5.80;3.15;;;;;;;;;;5012892;28;20611;-79
2022/08/18 08:05:33;;;;;;;6.97;3.15;;;;;;;;;;5020897;28;20475;-78
2022/08/18 08:08:20;;;;;;;6.55;3.25;;;;;;;;;;5032906;28;20427;-75
2022/08/18 08:11:10;;;;;;;5.90;2.35;;;;;;;;;;5032412;28;20049;-76
2022/08/18 08:13:54;;;;;;;5.93;3.17;;;;;;;;;;5033003;28;20329;-83
2022/08/18 08:16:34;;;;;;;10.40;3.10;;;;;;;;;;5032731;28;20037;-81
2022/08/18 08:19:12;;;;;;;4.03;2.50;;;;;;;;;;5015471;28;20158;-80
2022/08/18 08:21:47;;;;;;;6.68;3.20;;;;;;;;;;5012392;28;20125;-80
2022/08/18 08:24:25;;;;;;;3.47;2.45;;;;;;;;;;5011516;28;20092;-82
2022/08/18 08:27:22;;;;;;;6.53;2.45;;;;;;;;;;5012648;28;20037;-80
2022/08/18 08:30:12;;;;;;;6.30;3.40;;;;;;;;;;5010733;28;20046;-83
2022/08/18 08:32:50;;;;;;;5.22;3.03;;;;;;;;;;5012988;28;20034;-80
2022/08/18 08:35:20;;;;;;;6.10;2.90;;;;;;;;;;5013611;28;20030;-78
2022/08/18 08:38:33;;;;;;;4.78;2.85;;;;;;;;;;5014312;28;20030;-83
2022/08/18 08:41:19;;;;;;;12.27;3.07;;;;;;;;;;5014400;28;20477;-82
2022/08/18 08:44:01;;;;;;;7.78;2.75;;;;;;;;;;5012946;28;20041;-81
2022/08/18 08:46:30;;;;;;;5.50;2.50;;;;;;;;;;5016518;28;20201;-77
2022/08/18 08:49:05;;;;;;;9.40;2.80;;;;;;;;;;5032135;28;20353;-80
2022/08/18 08:51:36;;;;;;;5.15;3.10;;;;;;;;;;5032020;28;20358;-80
2022/08/18 08:54:27;;;;;;;6.97;3.20;;;;;;;;;;5031712;28;20112;-76
2022/08/18 08:56:55;;;;;;;5.40;2.80;;;;;;;;;;5016808;28;20380;-76
2022/08/18 08:59:23;;;;;;;4.70;2.78;;;;;;;;;;5012254;28;20029;-78
2022/08/18 09:02:26;;;;;;;8.48;2.90;;;;;;;;;;5010660;28;20057;-80
2022/08/18 09:05:12;;;;;;;7.55;2.65;;;;;;;;;;5010665;28;20404;-77
2022/08/18 09:07:46;;;;;;;9.80;3.58;;;;;;;;;;5011997;28;20033;-77
2022/08/18 09:10:33;;;;;;;5.72;2.55;;;;;;;;;;5031514;28;20052;-79
2022/08/18 09:13:17;;;;;;;4.25;2.70;;;;;;;;;;5031746;28;20033;-79
2022/08/18 09:16:00;;;;;;;4.63;2.53;;;;;;;;;;5031345;28;20044;-80
2022/08/18 09:18:50;;;;;;;8.25;3.38;;;;;;;;;;5031013;28;20030;-79
2022/08/18 09:21:37;;;;;;;6.07;2.80;;;;;;;;;;5030618;28;20171;-80
2022/08/18 09:24:18;;;;;;;4.38;2.60;;;;;;;;;;5001327;28;20496;-77
2022/08/18 09:26:56;;;;;;;9.63;3.20;;;;;;;;;;5032525;28;20044;-79
2022/08/18 09:29:37;;;;;;;8.20;3.40;;;;;;;;;;5035449;28;20041;-79
2022/08/18 09:32:21;;;;;;;8.13;2.90;;;;;;;;;;5035329;28;20092;-79
2022/08/18 09:34:50;;;;;;;5.00;2.72;;;;;;;;;;5035359;28;20037;-80
2022/08/18 09:41:30;;;;;;;5.28;2.78;;;;;;;;;;5035567;28;20022;-80
2022/08/18 09:43:36;;;;;;;3.70;2.47;;;;;;;;;;5035197;28;20026;-78
2022/08/18 09:46:04;;;;;;;8.82;3.17;;;;;;;;;;5035362;28;20120;-81
2022/08/18 09:48:32;;;;;;;6.70;2.47;;;;;;;;;;5035309;28;20032;-79
2022/08/18 09:51:17;;;;;;;10.52;2.80;;;;;;;;;;5035075;28;20056;-78
2022/08/18 09:53:51;;;;;;;6.95;2.78;;;;;;;;;;5035093;28;20456;-79
2022/08/18 09:56:48;;;;;;;8.82;3.15;;;;;;;;;;5034842;28;20091;-79
2022/08/18 09:59:32;;;;;;;8.73;3.45;;;;;;;;;;5034790;28;20033;-79
2022/08/18 10:02:02;;;;;;;7.97;3.28;;;;;;;;;;5034808;28;20041;-78
2022/08/18 10:04:50;;;;;;;6.78;2.95;;;;;;;;;;5034893;28;20033;-76
2022/08/18 10:07:36;;;;;;;5.80;3.40;;;;;;;;;;5034941;28;20056;-78
2022/08/18 10:10:27;;;;;;;6.90;3.00;;;;;;;;;;5034690;28;20036;-76
2022/08/18 10:12:53;;;;;;;5.05;2.80;;;;;;;;;;5034540;28;20041;-78
2022/08/18 10:15:39;;;;;;;7.20;2.75;;;;;;;;;;5034497;28;20022;-76
2022/08/18 10:18:29;;;;;;;7.82;3.22;;;;;;;;;;5034398;28;20021;-78
2022/08/18 10:21:02;;;;;;;6.30;2.83;;;;;;;;;;5034413;28;20038;-78
2022/08/18 10:23:51;;;;;;;8.75;3.03;;;;;;;;;;5034502;28;20025;-77
2022/08/18 10:26:29;;;;;;;6.60;2.53;;;;;;;;;;5034641;28;20563;-76
2022/08/18 10:29:04;;;;;;;5.10;2.67;;;;;;;;;;5023205;28;20030;-74
2022/08/18 10:31:50;;;;;;;3.58;2.60;;;;;;;;;;5019086;28;20052;-77
2022/08/18 10:34:38;;;;;;;6.78;2.40;;;;;;;;;;5032142;28;20033;-77
2022/08/18 10:37:16;;;;;;;5.88;2.75;;;;;;;;;;5034208;28;20033;-78
2022/08/18 10:39:47;;;;;;;6.97;2.85;;;;;;;;;;5027929;28;20072;-78
2022/08/18 10:42:27;;;;;;;5.28;3.10;;;;;;;;;;5024777;28;20028;-76
2022/08/18 10:45:07;;;;;;;5.40;2.40;;;;;;;;;;5029017;28;20033;-77
2022/08/18 10:47:33;;;;;;;11.82;3.10;;;;;;;;;;5032717;28;20104;-77
2022/08/18 10:50:01;;;;;;;6.70;3.47;;;;;;;;;;5032783;28;20535;-80
2022/08/18 10:52:30;;;;;;;8.10;3.08;;;;;;;;;;5033868;28;20088;-78
2022/08/18 10:55:16;;;;;;;7.05;2.80;;;;;;;;;;5032626;28;20051;-79
2022/08/18 10:58:00;;;;;;;5.78;2.88;;;;;;;;;;5031473;28;20042;-79
2022/08/18 11:00:46;;;;;;;5.90;2.50;;;;;;;;;;5023761;28;20038;-78
2022/08/18 11:03:26;;;;;;;6.40;2.70;;;;;;;;;;5032872;28;20406;-80
2022/08/18 11:06:05;;;;;;;5.57;3.17;;;;;;;;;;5032715;28;20044;-78
2022/08/18 11:08:35;;;;;;;4.40;2.40;;;;;;;;;;5031304;28;20419;-80
2022/08/18 11:11:07;;;;;;;7.63;2.80;;;;;;;;;;5032637;28;20033;-81
2022/08/18 11:13:57;;;;;;;4.07;2.63;;;;;;;;;;5033100;28;20388;-77
2022/08/18 11:17:01;;;;;;;4.90;2.60;;;;;;;;;;5031439;28;20030;-77
2022/08/18 11:19:27;;;;;;;6.03;2.75;;;;;;;;;;5032801;28;20104;-78
2022/08/18 11:21:53;;;;;;;5.88;2.80;;;;;;;;;;5032725;28;20022;-78
2022/08/18 11:24:30;;;;;;;6.68;2.78;;;;;;;;;;5031898;28;20079;-77
2022/08/18 11:27:02;;;;;;;5.40;2.50;;;;;;;;;;5032483;28;20033;-77
2022/08/18 11:29:30;;;;;;;7.72;2.55;;;;;;;;;;5032512;28;20045;-79
2022/08/18 11:32:31;;;;;;;3.97;2.58;;;;;;;;;;5031440;28;20033;-78
2022/08/18 11:34:57;;;;;;;7.95;2.83;;;;;;;;;;5032631;28;20104;-77
2022/08/18 11:37:26;;;;;;;8.90;2.97;;;;;;;;;;5015995;28;20176;-78
2022/08/18 11:39:56;;;;;;;8.05;2.90;;;;;;;;;;5013131;28;20048;-78
2022/08/18 11:42:32;;;;;;;8.63;5.93;;;;;;;;;;5027836;28;20041;-81
2022/08/18 11:45:20;;;;;;;6.70;2.70;;;;;;;;;;5032521;28;20061;-78
2022/08/18 11:48:27;;;;;;;7.47;5.47;;;;;;;;;;5022314;28;20113;-77
2022/08/18 11:50:56;;;;;;;7.15;3.05;;;;;;;;;;5002351;28;20046;-81
2022/08/18 11:53:37;;;;;;;6.93;2.75;;;;;;;;;;5013036;28;20042;-78
2022/08/18 11:56:10;;;;;;;4.38;2.63;;;;;;;;;;5012975;28;20029;-79
2022/08/18 11:58:52;;;;;;;4.97;2.88;;;;;;;;;;5013440;28;20034;-78
2022/08/18 12:01:32;;;;;;;9.00;3.10;;;;;;;;;;5016439;28;20033;-79
2022/08/18 12:04:25;;;;;;;6.45;2.85;;;;;;;;;;5032401;28;20586;-78
2022/08/18 12:06:54;;;;;;;6.68;3.00;;;;;;;;;;5027129;28;20191;-78
2022/08/18 12:09:31;;;;;;;6.40;2.78;;;;;;;;;;5032255;28;20059;-78
2022/08/18 12:12:13;;;;;;;5.57;2.70;;;;;;;;;;5032090;28;20122;-79
2022/08/18 12:14:56;;;;;;;4.80;2.70;;;;;;;;;;5022150;28;20717;-77
2022/08/18 12:17:23;;;;;;;5.75;2.97;;;;;;;;;;5011749;28;20034;-75
2022/08/18 12:19:48;;;;;;;8.18;3.15;;;;;;;;;;5012762;28;20377;-78
2022/08/18 12:22:17;;;;;;;6.88;2.85;;;;;;;;;;5012739;28;20038;-76
2022/08/18 12:24:45;;;;;;;10.60;3.65;;;;;;;;;;5013090;28;20026;-77
2022/08/18 12:27:14;;;;;;;10.48;3.00;;;;;;;;;;5019912;28;20412;-74
2022/08/18 12:29:40;;;;;;;5.20;2.95;;;;;;;;;;5032099;28;20045;-75
2022/08/18 12:32:07;;;;;;;5.07;2.50;;;;;;;;;;5032599;28;20400;-74
2022/08/18 12:34:32;;;;;;;5.05;2.90;;;;;;;;;;5032374;28;20030;-79
2022/08/18 12:37:02;;;;;;;5.25;2.70;;;;;;;;;;5032373;28;20435;-77
2022/08/18 12:39:32;;;;;;;8.57;2.75;;;;;;;;;;5027423;28;20053;-76
2022/08/18 12:41:58;;;;;;;4.72;3.00;;;;;;;;;;5030877;28;20116;-79
2022/08/18 12:44:24;;;;;;;5.68;2.70;;;;;;;;;;5033217;28;20120;-79
2022/08/18 12:46:51;;;;;;;5.35;2.60;;;;;;;;;;5032586;28;20460;-76
2022/08/18 12:49:20;;;;;;;5.20;2.58;;;;;;;;;;5032268;28;20025;-78
2022/08/18 12:51:47;;;;;;;4.82;2.42;;;;;;;;;;5031568;28;20037;-77
2022/08/18 12:54:13;;;;;;;5.18;2.53;;;;;;;;;;5032166;28;20076;-78
2022/08/18 12:56:41;;;;;;;5.18;2.67;;;;;;;;;;5032307;28;20034;-77
2022/08/18 12:59:09;;;;;;;5.40;2.60;;;;;;;;;;5032178;28;20021;-79
2022/08/18 13:01:37;;;;;;;7.68;2.85;;;;;;;;;;5032011;28;20049;-78
2022/08/18 13:04:04;;;;;;;6.13;2.30;;;;;;;;;;5035494;28;20090;-78
2022/08/18 13:06:33;;;;;;;5.10;2.55;;;;;;;;;;5035042;28;20026;-80
2022/08/18 13:08:59;;;;;;;4.25;2.53;;;;;;;;;;5041190;28;20052;-79
2022/08/18 13:11:25;;;;;;;5.22;2.53;;;;;;;;;;5035951;28;20037;-78
2022/08/18 13:20:16;;;;;;;5.03;2.50;;;;;;;;;;4171088;28;20053;-83
2022/08/18 13:22:42;;;;;;;6.05;2.60;;;;;;;;;;4976112;28;20081;-77
2022/08/18 13:25:12;;;;;;;4.45;2.28;;;;;;;;;;4977044;28;20424;-77
2022/08/18 13:27:38;;;;;;;5.10;2.55;;;;;;;;;;4977010;28;20517;-77
2022/08/18 13:30:08;;;;;;;4.80;2.50;;;;;;;;;;4965899;28;20031;-79
2022/08/18 13:32:34;;;;;;;5.50;2.45;;;;;;;;;;4957751;29;20062;-79
2022/08/18 13:35:03;;;;;;;5.53;2.80;;;;;;;;;;4957618;28;20064;-78
2022/08/18 13:37:36;;;;;;;4.90;2.72;;;;;;;;;;4957542;28;20059;-79
2022/08/18 13:40:03;;;;;;;4.53;2.58;;;;;;;;;;4957450;29;20446;-80
2022/08/18 13:42:29;;;;;;;5.15;2.42;;;;;;;;;;4957527;29;20367;-77
2022/08/18 13:44:59;;;;;;;5.20;2.40;;;;;;;;;;4965452;28;20038;-77
2022/08/18 13:47:30;;;;;;;3.85;2.40;;;;;;;;;;4968524;28;20082;-76
2022/08/18 13:49:56;;;;;;;5.35;2.50;;;;;;;;;;4960475;28;20437;-77
2022/08/18 13:52:22;;;;;;;4.28;2.45;;;;;;;;;;4957096;29;20038;-77
2022/08/18 13:54:48;;;;;;;7.72;2.63;;;;;;;;;;4957078;29;20418;-79
2022/08/18 13:57:14;;;;;;;6.10;2.20;;;;;;;;;;4954691;28;20102;-78
2022/08/18 13:59:40;;;;;;;3.47;2.33;;;;;;;;;;4955221;29;20457;-81
2022/08/18 14:02:08;;;;;;;3.20;2.22;;;;;;;;;;4958926;28;20051;-82
2022/08/18 14:04:37;;;;;;;5.88;2.60;;;;;;;;;;4964455;28;20540;-80
2022/08/18 14:07:04;;;;;;;4.18;2.50;;;;;;;;;;4971182;28;20359;-78
2022/08/18 14:09:30;;;;;;;6.15;2.70;;;;;;;;;;4976004;28;20551;-75
2022/08/18 14:11:57;;;;;;;7.93;2.88;;;;;;;;;;4976000;28;20058;-81
2022/08/18 14:14:23;;;;;;;6.18;2.30;;;;;;;;;;4956686;28;20059;-74
2022/08/18 14:16:49;;;;;;;6.72;2.85;;;;;;;;;;4954575;28;20027;-75
2022/08/18 14:27:33;;;;;;;6.65;2.60;;;;;;;;;;4956363;29;20028;-76
2022/08/18 14:30:06;;;;;;;5.95;2.60;;;;;;;;;;4956325;28;20035;-76
2022/08/18 14:32:33;;;;;;;5.85;2.47;;;;;;;;;;4956245;29;20039;-79
2022/08/18 14:35:01;;;;;;;5.95;2.70;;;;;;;;;;4960863;28;20034;-72
2022/08/18 14:37:29;;;;;;;3.95;2.70;;;;;;;;;;4950500;28;20506;-74
2022/08/18 14:39:55;;;;;;;6.43;2.95;;;;;;;;;;4954941;29;20028;-74
2022/08/18 14:42:21;;;;;;;5.15;2.53;;;;;;;;;;4950003;28;20038;-77
2022/08/18 14:44:48;;;;;;;5.95;2.92;;;;;;;;;;4950166;28;20031;-76
2022/08/18 14:47:14;;;;;;;6.47;3.08;;;;;;;;;;4937582;28;20054;-73
2022/08/18 14:49:41;;;;;;;6.03;2.50;;;;;;;;;;4936523;29;20078;-75
2022/08/18 14:52:09;;;;;;;7.40;2.63;;;;;;;;;;4950935;29;20627;-77
2022/08/18 14:54:35;;;;;;;8.00;2.92;;;;;;;;;;4956057;28;20070;-76
2022/08/18 14:57:01;;;;;;;6.60;3.22;;;;;;;;;;4955924;28;20035;-76
2022/08/18 14:59:29;;;;;;;7.40;3.15;;;;;;;;;;4955840;28;20122;-74
2022/08/18 15:01:57;;;;;;;4.43;3.00;;;;;;;;;;4955764;28;20566;-74
2022/08/18 15:04:23;;;;;;;5.35;2.88;;;;;;;;;;4952725;28;20086;-74
2022/08/18 15:06:49;;;;;;;6.97;2.70;;;;;;;;;;4954440;28;20031;-74
2022/08/18 15:09:15;;;;;;;7.22;2.75;;;;;;;;;;4955898;28;20110;-75
2022/08/18 15:11:41;;;;;;;4.82;2.75;;;;;;;;;;4955479;28;20458;-78
2022/08/18 15:14:08;;;;;;;5.63;2.58;;;;;;;;;;4955982;29;20027;-78
2022/08/18 15:16:33;;;;;;;7.30;2.92;;;;;;;;;;4955374;28;20122;-78
2022/08/18 15:19:00;;;;;;;4.60;2.88;;;;;;;;;;4954949;29;20106;-77
2022/08/18 15:26:58;;;;;;;6.22;3.05;;;;;;;;;;4946445;28;20035;-76
2022/08/18 15:29:24;;;;;;;5.10;3.08;;;;;;;;;;4929471;29;20382;-74
2022/08/18 15:31:50;;;;;;;4.15;2.47;;;;;;;;;;4926319;29;20050;-73
2022/08/18 15:34:17;;;;;;;7.32;3.35;;;;;;;;;;4930725;29;20031;-74
2022/08/18 15:36:43;;;;;;;6.07;3.13;;;;;;;;;;4934389;29;20115;-74
2022/08/18 15:39:09;;;;;;;6.05;2.72;;;;;;;;;;4933394;29;20098;-74
2022/08/18 15:41:39;;;;;;;7.35;3.00;;;;;;;;;;4934341;29;20087;-74
2022/08/18 15:44:08;;;;;;;4.10;2.80;;;;;;;;;;4934048;29;20123;-75
2022/08/18 15:46:36;;;;;;;5.05;3.15;;;;;;;;;;4917496;29;20038;-75
2022/08/18 15:49:06;;;;;;;5.50;2.70;;;;;;;;;;4938567;29;20053;-73
2022/08/18 15:51:32;;;;;;;3.97;2.60;;;;;;;;;;4940530;29;20091;-74
2022/08/18 15:53:58;;;;;;;4.07;2.72;;;;;;;;;;4946015;29;20107;-73